createdAt,value
2018-12-18T00:00:04.195Z,78.08
2018-12-18T00:02:31.146Z,78.06
2018-12-18T00:04:58.100Z,78.08
2018-12-18T00:07:25.054Z,78.10
2018-12-18T00:09:52.068Z,78.19
2018-12-18T00:12:18.993Z,78.29
2018-12-18T00:14:46.536Z,78.43
2018-12-18T00:17:13.502Z,78.48
2018-12-18T00:19:40.480Z,78.52
2018-12-18T00:22:07.439Z,78.49
2018-12-18T00:24:34.385Z,78.46
2018-12-18T00:27:01.354Z,78.60
2018-12-18T00:29:28.328Z,78.58
2018-12-18T00:31:55.326Z,78.62
2018-12-18T00:34:22.293Z,78.76
2018-12-18T00:36:49.745Z,78.83
2018-12-18T00:39:16.717Z,79.13
2018-12-18T00:41:43.868Z,79.40
2018-12-18T00:44:10.831Z,79.45
2018-12-18T00:46:37.857Z,79.42
2018-12-18T00:49:04.823Z,79.03
2018-12-18T00:51:31.782Z,79.00
2018-12-18T00:53:58.818Z,79.04
2018-12-18T00:56:25.798Z,79.11
2018-12-18T00:58:52.786Z,79.10
2018-12-18T01:01:19.801Z,79.12
2018-12-18T01:03:52.570Z,79.36
2018-12-18T01:06:13.775Z,79.38
2018-12-18T01:08:40.844Z,79.57
2018-12-18T01:11:07.843Z,79.39
2018-12-18T01:13:34.848Z,79.21
2018-12-18T01:16:03.738Z,79.14
2018-12-18T01:18:31.171Z,79.03
2018-12-18T01:20:58.563Z,78.89
2018-12-18T01:23:26.057Z,79.17
2018-12-18T01:25:53.449Z,79.72
2018-12-18T01:28:20.874Z,80.22
2018-12-18T01:30:48.300Z,80.38
2018-12-18T01:33:15.892Z,80.26
2018-12-18T01:35:43.289Z,80.04
2018-12-18T01:38:10.714Z,79.96
2018-12-18T01:40:38.176Z,79.99
2018-12-18T01:43:05.160Z,80.13
2018-12-18T01:45:32.602Z,80.01
2018-12-18T01:48:00.016Z,79.77
2018-12-18T01:50:27.420Z,79.74
2018-12-18T01:52:55.154Z,79.53
2018-12-18T01:55:22.543Z,79.43
2018-12-18T01:57:49.971Z,79.30
2018-12-18T02:00:17.366Z,79.25
2018-12-18T02:02:45.000Z,79.32
2018-12-18T02:05:12.932Z,79.32
2018-12-18T02:07:40.335Z,79.15
2018-12-18T02:10:07.759Z,79.16
2018-12-18T02:12:35.167Z,79.42
2018-12-18T02:15:03.423Z,79.50
2018-12-18T02:17:30.878Z,79.54
2018-12-18T02:19:58.301Z,79.53
2018-12-18T02:22:25.683Z,79.41
2018-12-18T02:24:53.071Z,79.36
2018-12-18T02:27:20.476Z,79.43
2018-12-18T02:29:47.876Z,79.55
2018-12-18T02:32:15.278Z,79.54
2018-12-18T02:34:42.682Z,79.42
2018-12-18T02:37:10.116Z,79.42
2018-12-18T02:39:37.524Z,79.53
2018-12-18T02:42:04.928Z,79.51
2018-12-18T02:44:32.326Z,79.61
2018-12-18T02:46:59.741Z,79.49
2018-12-18T02:49:27.165Z,79.28
2018-12-18T02:51:54.569Z,79.21
2018-12-18T02:54:21.991Z,79.32
2018-12-18T02:56:49.387Z,79.29
2018-12-18T02:59:16.817Z,79.29
2018-12-18T03:01:44.263Z,79.55
2018-12-18T03:04:12.018Z,79.68
2018-12-18T03:06:39.491Z,80.22
2018-12-18T03:09:06.911Z,80.38
2018-12-18T03:11:34.311Z,80.41
2018-12-18T03:14:01.737Z,80.59
2018-12-18T03:16:29.128Z,80.60
2018-12-18T03:18:56.545Z,80.62
2018-12-18T03:21:24.327Z,80.67
2018-12-18T03:23:51.725Z,80.72
2018-12-18T03:26:19.508Z,80.67
2018-12-18T03:28:47.116Z,80.55
2018-12-18T03:31:14.531Z,80.71
2018-12-18T03:33:42.614Z,81.41
2018-12-18T03:36:10.022Z,81.61
2018-12-18T03:38:37.661Z,81.92
2018-12-18T03:41:05.525Z,82.14
2018-12-18T03:43:32.954Z,82.11
2018-12-18T03:46:00.355Z,81.99
2018-12-18T03:48:27.809Z,82.27
2018-12-18T03:50:56.575Z,82.11
2018-12-18T03:53:24.002Z,82.34
2018-12-18T03:55:51.635Z,82.10
2018-12-18T03:58:19.097Z,82.11
2018-12-18T04:00:46.529Z,81.79
2018-12-18T04:03:14.792Z,81.49
2018-12-18T04:05:42.212Z,81.32
2018-12-18T04:08:09.881Z,81.09
2018-12-18T04:10:37.341Z,80.81
2018-12-18T04:13:04.751Z,80.47
2018-12-18T04:15:32.355Z,80.42
2018-12-18T04:17:59.771Z,80.52
2018-12-18T04:20:27.317Z,80.28
2018-12-18T04:22:54.718Z,80.08
2018-12-18T04:25:22.164Z,80.13
2018-12-18T04:27:49.641Z,80.42
2018-12-18T04:30:17.061Z,80.15
2018-12-18T04:32:44.556Z,80.09
2018-12-18T04:35:12.067Z,80.27
2018-12-18T04:37:39.546Z,80.50
2018-12-18T04:40:07.100Z,80.65
2018-12-18T04:42:34.561Z,81.08
2018-12-18T04:45:03.061Z,80.96
2018-12-18T04:47:30.459Z,81.02
2018-12-18T04:49:57.877Z,80.92
2018-12-18T04:52:25.281Z,81.15
2018-12-18T04:54:52.753Z,80.88
2018-12-18T04:57:20.165Z,80.69
2018-12-18T04:59:47.602Z,80.37
2018-12-18T05:02:15.092Z,80.11
2018-12-18T05:04:50.007Z,79.82
2018-12-18T05:07:10.245Z,79.81
2018-12-18T05:09:38.256Z,79.64
2018-12-18T05:12:06.571Z,79.58
2018-12-18T05:14:35.072Z,79.49
2018-12-18T05:17:02.518Z,79.54
2018-12-18T05:19:29.985Z,79.59
2018-12-18T05:21:58.093Z,80.03
2018-12-18T05:24:25.518Z,79.94
2018-12-18T05:26:52.969Z,79.74
2018-12-18T05:29:20.409Z,79.53
2018-12-18T05:31:47.847Z,79.26
2018-12-18T05:34:15.339Z,78.95
2018-12-18T05:36:42.819Z,79.17
2018-12-18T05:39:10.670Z,79.16
2018-12-18T05:41:38.120Z,79.02
2018-12-18T05:44:05.527Z,79.13
2018-12-18T05:46:32.937Z,79.16
2018-12-18T05:49:00.991Z,79.20
2018-12-18T05:51:28.397Z,79.18
2018-12-18T05:53:55.808Z,79.14
2018-12-18T05:56:23.282Z,78.68
2018-12-18T05:58:50.721Z,78.68
2018-12-18T06:01:18.183Z,78.96
2018-12-18T06:03:45.586Z,79.09
2018-12-18T06:06:13.585Z,79.24
2018-12-18T06:08:40.978Z,79.07
2018-12-18T06:11:08.449Z,79.05
2018-12-18T06:13:35.871Z,79.15
2018-12-18T06:16:04.460Z,79.20
2018-12-18T06:18:31.895Z,79.04
2018-12-18T06:20:59.297Z,78.92
2018-12-18T06:23:26.741Z,79.09
2018-12-18T06:25:54.129Z,79.54
2018-12-18T06:28:22.051Z,79.57
2018-12-18T06:30:49.453Z,79.28
2018-12-18T06:33:16.892Z,79.29
2018-12-18T06:35:44.407Z,79.58
2018-12-18T06:38:11.828Z,79.94
2018-12-18T06:40:39.230Z,79.82
2018-12-18T06:43:06.699Z,79.57
2018-12-18T06:45:34.140Z,79.73
2018-12-18T06:48:01.583Z,79.96
2018-12-18T06:50:28.998Z,80.21
2018-12-18T06:52:56.426Z,80.07
2018-12-18T06:55:23.853Z,79.98
2018-12-18T06:57:51.333Z,80.00
2018-12-18T07:00:18.767Z,79.61
2018-12-18T07:02:46.343Z,79.53
2018-12-18T07:05:16.822Z,79.48
2018-12-18T07:07:41.396Z,79.18
2018-12-18T07:10:08.797Z,79.29
2018-12-18T07:12:36.974Z,79.43
2018-12-18T07:15:04.383Z,79.73
2018-12-18T07:17:32.631Z,79.64
2018-12-18T07:20:00.058Z,79.57
2018-12-18T07:22:27.454Z,79.04
2018-12-18T07:24:54.897Z,79.11
2018-12-18T07:27:22.307Z,79.29
2018-12-18T07:29:49.712Z,79.32
2018-12-18T07:32:17.135Z,79.61
2018-12-18T07:34:44.529Z,79.60
2018-12-18T07:37:11.957Z,79.62
2018-12-18T07:39:39.450Z,78.90
2018-12-18T07:42:07.085Z,78.50
2018-12-18T07:44:35.641Z,78.35
2018-12-18T07:47:03.191Z,78.32
2018-12-18T07:49:30.607Z,78.38
2018-12-18T07:51:58.487Z,78.48
2018-12-18T07:54:26.072Z,79.03
2018-12-18T07:56:53.478Z,78.81
2018-12-18T07:59:20.893Z,78.96
2018-12-18T08:01:48.359Z,78.92
2018-12-18T08:04:15.761Z,79.24
2018-12-18T08:06:44.422Z,79.16
2018-12-18T08:09:11.899Z,79.01
2018-12-18T08:11:39.326Z,78.58
2018-12-18T08:14:06.742Z,78.39
2018-12-18T08:16:34.817Z,78.39
2018-12-18T08:19:02.260Z,78.11
2018-12-18T08:21:30.291Z,78.02
2018-12-18T08:23:57.972Z,78.15
2018-12-18T08:26:25.518Z,77.91
2018-12-18T08:28:52.925Z,77.79
2018-12-18T08:31:20.384Z,77.60
2018-12-18T08:33:48.607Z,77.00
2018-12-18T08:36:16.059Z,76.80
2018-12-18T08:38:43.461Z,76.68
2018-12-18T08:41:10.969Z,76.20
2018-12-18T08:43:38.380Z,75.65
2018-12-18T08:46:10.140Z,75.12
2018-12-18T08:48:33.207Z,74.64
2018-12-18T08:51:00.736Z,74.19
2018-12-18T08:53:28.152Z,73.68
2018-12-18T08:55:55.552Z,72.62
2018-12-18T08:58:22.954Z,72.37
2018-12-18T09:00:50.458Z,71.25
2018-12-18T09:03:17.913Z,70.97
2018-12-18T09:05:45.419Z,70.73
2018-12-18T09:08:12.870Z,70.55
2018-12-18T09:10:40.345Z,68.92
2018-12-18T09:13:07.876Z,67.61
2018-12-18T09:15:40.549Z,65.20
2018-12-18T09:18:07.566Z,64.12
2018-12-18T09:20:34.534Z,65.31
2018-12-18T09:23:01.493Z,67.38
2018-12-18T09:25:28.441Z,67.85
2018-12-18T09:27:55.400Z,68.59
2018-12-18T09:30:22.849Z,69.26
2018-12-18T09:32:50.280Z,69.79
2018-12-18T09:35:17.702Z,69.77
2018-12-18T09:37:45.097Z,69.86
2018-12-18T09:40:12.549Z,69.76
2018-12-18T09:42:45.519Z,69.55
2018-12-18T09:45:12.936Z,69.62
2018-12-18T09:47:39.892Z,69.66
2018-12-18T09:50:06.846Z,69.11
2018-12-18T09:52:33.819Z,68.18
2018-12-18T09:55:00.788Z,68.44
2018-12-18T09:57:33.430Z,68.58
2018-12-18T10:00:00.381Z,68.15
2018-12-18T10:02:27.338Z,67.31
2018-12-18T10:04:54.403Z,65.78
2018-12-18T10:07:21.377Z,64.56
2018-12-18T10:09:48.410Z,61.44
2018-12-18T10:12:15.477Z,57.65
2018-12-18T10:14:42.463Z,55.47
2018-12-18T10:17:09.423Z,53.58
2018-12-18T10:19:36.375Z,52.17
2018-12-18T10:22:03.331Z,52.67
2018-12-18T10:24:30.286Z,51.55
2018-12-18T10:26:57.227Z,50.33
2018-12-18T10:29:24.186Z,49.25
2018-12-18T10:31:51.182Z,48.15
2018-12-18T10:34:18.670Z,49.20
2018-12-18T10:36:45.607Z,48.79
2018-12-18T10:39:12.764Z,47.32
2018-12-18T10:41:39.792Z,45.76
2018-12-18T10:44:07.198Z,44.14
2018-12-18T10:46:34.680Z,43.02
2018-12-18T10:49:02.104Z,42.84
2018-12-18T10:51:29.530Z,41.14
2018-12-18T10:53:57.033Z,40.83
2018-12-18T10:56:24.472Z,40.59
2018-12-18T10:58:51.919Z,39.99
2018-12-18T11:01:25.283Z,39.64
2018-12-18T11:03:52.703Z,39.58
2018-12-18T11:06:20.144Z,38.42
2018-12-18T11:08:47.631Z,38.59
2018-12-18T11:11:15.022Z,39.81
2018-12-18T11:13:42.543Z,40.37
2018-12-18T11:16:09.936Z,43.12
2018-12-18T11:18:37.381Z,44.88
2018-12-18T11:21:04.777Z,45.78
2018-12-18T11:23:33.396Z,47.05
2018-12-18T11:26:00.795Z,47.64
2018-12-18T11:28:28.375Z,48.19
2018-12-18T11:30:56.153Z,48.40
2018-12-18T11:33:23.558Z,49.30
2018-12-18T11:35:51.311Z,50.50
2018-12-18T11:38:18.784Z,51.21
2018-12-18T11:40:46.184Z,51.93
2018-12-18T11:43:13.591Z,51.97
2018-12-18T11:45:41.005Z,51.18
2018-12-18T11:48:08.565Z,50.78
2018-12-18T11:50:35.959Z,50.91
2018-12-18T11:53:03.397Z,51.69
2018-12-18T11:55:30.894Z,50.43
2018-12-18T11:57:58.882Z,45.03
2018-12-18T12:00:26.369Z,41.57
2018-12-18T12:02:53.866Z,40.04
2018-12-18T12:05:21.314Z,38.64
2018-12-18T12:07:48.747Z,37.21
2018-12-18T12:10:16.661Z,36.38
2018-12-18T12:12:44.073Z,35.10
2018-12-18T12:15:11.508Z,36.76
2018-12-18T12:17:38.915Z,36.40
2018-12-18T12:20:06.355Z,35.80
2018-12-18T12:22:33.765Z,35.03
2018-12-18T12:25:01.223Z,34.45
2018-12-18T12:27:33.478Z,33.92
2018-12-18T12:30:01.247Z,32.75
2018-12-18T12:32:28.674Z,31.82
2018-12-18T12:34:56.607Z,30.83
2018-12-18T12:37:24.069Z,31.42
2018-12-18T12:39:54.357Z,31.69
2018-12-18T12:42:21.765Z,31.89
2018-12-18T12:44:49.194Z,30.83
2018-12-18T12:47:16.723Z,30.62
2018-12-18T12:49:44.193Z,31.42
2018-12-18T12:52:11.592Z,31.32
2018-12-18T12:54:39.826Z,31.88
2018-12-18T12:57:08.847Z,33.30
2018-12-18T12:59:36.423Z,34.45
2018-12-18T13:02:03.826Z,35.50
2018-12-18T13:04:31.316Z,36.44
2018-12-18T13:06:58.825Z,37.44
2018-12-18T13:09:26.853Z,38.02
2018-12-18T13:11:54.255Z,36.68
2018-12-18T13:14:21.770Z,36.33
2018-12-18T13:16:49.166Z,36.54
2018-12-18T13:19:16.566Z,36.80
2018-12-18T13:21:43.987Z,37.31
2018-12-18T13:24:11.560Z,37.05
2018-12-18T13:26:38.995Z,37.79
2018-12-18T13:29:06.493Z,41.30
2018-12-18T13:31:34.054Z,44.39
2018-12-18T13:34:02.073Z,46.37
2018-12-18T13:36:29.039Z,47.39
2018-12-18T13:38:56.496Z,49.05
2018-12-18T13:41:23.926Z,50.04
2018-12-18T13:43:51.350Z,51.63
2018-12-18T13:46:18.806Z,52.12
2018-12-18T13:48:46.585Z,52.75
2018-12-18T13:51:14.010Z,53.59
2018-12-18T13:53:41.457Z,54.08
2018-12-18T13:56:08.897Z,53.96
2018-12-18T13:58:36.376Z,54.61
2018-12-18T14:01:03.828Z,53.96
2018-12-18T14:03:31.282Z,54.56
2018-12-18T14:05:58.676Z,54.41
2018-12-18T14:08:26.130Z,54.50
2018-12-18T14:10:53.736Z,54.53
2018-12-18T14:13:21.120Z,54.56
2018-12-18T14:15:48.543Z,54.20
2018-12-18T14:18:15.955Z,54.11
2018-12-18T14:20:43.367Z,53.93
2018-12-18T14:23:10.786Z,53.78
2018-12-18T14:25:38.176Z,54.30
2018-12-18T14:28:05.674Z,54.46
2018-12-18T14:30:33.219Z,54.56
2018-12-18T14:33:00.626Z,55.12
2018-12-18T14:35:28.042Z,55.14
2018-12-18T14:37:55.468Z,55.48
2018-12-18T14:40:22.856Z,55.77
2018-12-18T14:42:50.269Z,55.72
2018-12-18T14:45:17.667Z,55.94
2018-12-18T14:47:45.090Z,56.05
2018-12-18T14:50:12.490Z,56.23
2018-12-18T14:52:39.922Z,57.02
2018-12-18T14:55:07.459Z,57.35
2018-12-18T14:57:34.890Z,57.24
2018-12-18T15:00:02.300Z,57.67
2018-12-18T15:02:30.128Z,57.82
2018-12-18T15:04:57.535Z,58.79
2018-12-18T15:07:25.249Z,58.84
2018-12-18T15:09:53.000Z,58.83
2018-12-18T15:12:21.129Z,58.88
2018-12-18T15:14:48.546Z,59.23
2018-12-18T15:17:15.955Z,58.93
2018-12-18T15:19:43.380Z,59.46
2018-12-18T15:22:10.812Z,59.42
2018-12-18T15:24:38.241Z,60.16
2018-12-18T15:27:05.681Z,60.39
2018-12-18T15:29:33.768Z,60.26
2018-12-18T15:32:01.181Z,60.41
2018-12-18T15:34:28.654Z,60.47
2018-12-18T15:36:56.047Z,60.31
2018-12-18T15:39:23.483Z,60.38
2018-12-18T15:41:50.871Z,60.57
2018-12-18T15:44:18.316Z,61.47
2018-12-18T15:46:45.721Z,61.75
2018-12-18T15:49:13.294Z,62.13
2018-12-18T15:51:40.707Z,61.94
2018-12-18T15:54:08.109Z,61.91
2018-12-18T15:56:35.500Z,61.60
2018-12-18T15:59:02.971Z,61.95
2018-12-18T16:01:30.387Z,62.26
2018-12-18T16:03:58.680Z,61.94
2018-12-18T16:06:26.161Z,62.11
2018-12-18T16:08:53.556Z,62.81
2018-12-18T16:11:20.945Z,63.20
2018-12-18T16:13:48.361Z,63.61
2018-12-18T16:16:15.758Z,63.68
2018-12-18T16:18:43.241Z,63.82
2018-12-18T16:21:10.698Z,63.93
2018-12-18T16:23:38.128Z,63.46
2018-12-18T16:26:05.572Z,63.22
2018-12-18T16:28:33.009Z,63.62
2018-12-18T16:31:00.402Z,63.77
2018-12-18T16:33:27.872Z,63.86
2018-12-18T16:35:55.334Z,63.93
2018-12-18T16:38:22.871Z,63.98
2018-12-18T16:40:50.307Z,64.41
2018-12-18T16:43:17.730Z,64.51
2018-12-18T16:45:45.128Z,64.40
2018-12-18T16:48:12.559Z,64.40
2018-12-18T16:50:39.961Z,64.77
2018-12-18T16:53:07.520Z,64.86
2018-12-18T16:55:34.934Z,64.73
2018-12-18T16:58:02.327Z,64.44
2018-12-18T17:00:29.901Z,64.33
2018-12-18T17:02:57.321Z,64.35
2018-12-18T17:05:24.298Z,64.37
2018-12-18T17:07:51.247Z,64.36
2018-12-18T17:10:18.197Z,64.26
2018-12-18T17:12:50.809Z,64.73
2018-12-18T17:15:17.909Z,64.84
2018-12-18T17:17:45.321Z,65.33
2018-12-18T17:20:12.754Z,65.46
2018-12-18T17:22:40.799Z,65.62
2018-12-18T17:25:08.201Z,65.76
2018-12-18T17:27:35.642Z,65.90
2018-12-18T17:30:03.412Z,65.88
2018-12-18T17:32:30.427Z,65.82
2018-12-18T17:34:57.382Z,65.96
2018-12-18T17:37:24.336Z,66.34
2018-12-18T17:39:51.807Z,66.55
2018-12-18T17:42:19.411Z,66.64
2018-12-18T17:44:46.399Z,66.81
2018-12-18T17:47:13.350Z,67.06
2018-12-18T17:49:40.308Z,67.56
2018-12-18T17:52:07.332Z,67.95
2018-12-18T17:54:34.352Z,68.56
2018-12-18T17:57:01.439Z,68.63
2018-12-18T17:59:28.843Z,68.95
2018-12-18T18:01:56.339Z,69.22
2018-12-18T18:04:23.819Z,69.22
2018-12-18T18:06:51.264Z,69.28
2018-12-18T18:09:18.719Z,69.38
2018-12-18T18:11:46.143Z,69.12
2018-12-18T18:14:13.783Z,68.96
2018-12-18T18:16:41.217Z,69.05
2018-12-18T18:19:08.607Z,69.14
2018-12-18T18:21:36.041Z,69.66
2018-12-18T18:24:03.707Z,69.81
2018-12-18T18:26:32.239Z,69.96
2018-12-18T18:28:59.331Z,70.33
2018-12-18T18:31:26.719Z,70.73
2018-12-18T18:33:54.147Z,70.63
2018-12-18T18:36:21.598Z,70.51
2018-12-18T18:38:49.790Z,70.76
2018-12-18T18:41:17.203Z,70.70
2018-12-18T18:43:44.641Z,70.65
2018-12-18T18:46:12.718Z,71.20
2018-12-18T18:48:40.179Z,70.75
2018-12-18T18:51:07.796Z,70.58
2018-12-18T18:53:35.746Z,70.43
2018-12-18T18:56:03.152Z,70.35
2018-12-18T18:58:30.579Z,70.37
2018-12-18T19:00:57.981Z,70.62
2018-12-18T19:03:25.402Z,70.75
2018-12-18T19:05:52.415Z,70.76
2018-12-18T19:08:19.388Z,70.46
2018-12-18T19:10:46.439Z,70.22
2018-12-18T19:13:13.859Z,70.46
2018-12-18T19:15:41.272Z,70.50
2018-12-18T19:18:08.733Z,70.82
2018-12-18T19:20:36.299Z,71.06
2018-12-18T19:23:03.720Z,71.23
2018-12-18T19:25:31.189Z,71.50
2018-12-18T19:27:58.135Z,71.74
2018-12-18T19:30:25.104Z,71.86
2018-12-18T19:32:52.111Z,71.62
2018-12-18T19:35:19.166Z,71.57
2018-12-18T19:37:46.261Z,71.79
2018-12-18T19:40:13.251Z,72.01
2018-12-18T19:42:40.184Z,71.68
2018-12-18T19:45:07.132Z,71.61
2018-12-18T19:47:34.316Z,71.68
2018-12-18T19:50:01.282Z,71.45
2018-12-18T19:52:28.720Z,71.08
2018-12-18T19:54:55.672Z,70.94
2018-12-18T19:57:22.611Z,71.04
2018-12-18T19:59:49.622Z,71.17
2018-12-18T20:02:17.048Z,71.26
2018-12-18T20:04:44.454Z,71.33
2018-12-18T20:07:12.711Z,71.37
2018-12-18T20:09:40.308Z,71.63
2018-12-18T20:12:08.990Z,71.62
2018-12-18T20:14:35.954Z,71.34
2018-12-18T20:17:03.376Z,71.13
2018-12-18T20:19:30.871Z,71.39
2018-12-18T20:21:59.076Z,71.32
2018-12-18T20:24:27.759Z,71.29
2018-12-18T20:26:55.332Z,71.32
2018-12-18T20:29:22.806Z,71.68
2018-12-18T20:31:50.206Z,72.11
2018-12-18T20:36:51.458Z,72.59
2018-12-18T20:39:19.745Z,72.66
2018-12-18T20:41:46.718Z,72.55
2018-12-18T20:44:13.650Z,72.81
2018-12-18T20:46:40.602Z,73.00
2018-12-18T20:49:08.569Z,73.09
2018-12-18T20:51:35.492Z,73.06
2018-12-18T20:54:02.439Z,73.08
2018-12-18T20:56:29.487Z,72.99
2018-12-18T20:58:56.947Z,73.02
2018-12-18T21:01:24.676Z,72.76
2018-12-18T21:03:52.161Z,72.42
2018-12-18T21:06:19.578Z,72.13
2018-12-18T21:08:46.983Z,72.11
2018-12-18T21:11:14.433Z,72.22
2018-12-18T21:13:41.898Z,72.60
2018-12-18T21:16:09.359Z,72.56
2018-12-18T21:18:36.785Z,72.78
2018-12-18T21:21:04.173Z,73.06
2018-12-18T21:23:31.597Z,72.54
2018-12-18T21:25:59.003Z,72.36
2018-12-18T21:28:26.419Z,72.24
2018-12-18T21:30:53.413Z,72.30
2018-12-18T21:33:20.351Z,72.45
2018-12-18T21:35:47.781Z,72.11
2018-12-18T21:38:14.768Z,72.05
2018-12-18T21:40:42.942Z,72.43
2018-12-18T21:43:10.402Z,72.44
2018-12-18T21:45:37.852Z,72.31
2018-12-18T21:48:05.291Z,72.13
2018-12-18T21:52:59.885Z,72.61
2018-12-18T21:55:27.292Z,72.92
2018-12-18T21:57:54.695Z,73.01
2018-12-18T22:00:22.106Z,73.22
2018-12-18T22:02:49.632Z,73.33
2018-12-18T22:05:17.038Z,73.35
2018-12-18T22:07:44.508Z,73.23
2018-12-18T22:10:11.469Z,73.42
2018-12-18T22:12:38.621Z,73.52
2018-12-18T22:15:06.031Z,74.19
2018-12-18T22:17:33.445Z,74.33
2018-12-18T22:20:00.872Z,74.05
2018-12-18T22:22:28.312Z,73.91
2018-12-18T22:24:55.758Z,73.86
2018-12-18T22:27:23.177Z,73.76
2018-12-18T22:29:50.730Z,74.31
2018-12-18T22:32:19.248Z,74.03
2018-12-18T22:34:46.331Z,73.95
2018-12-18T22:37:14.417Z,73.92
2018-12-18T22:39:40.267Z,74.17
2018-12-18T22:42:07.704Z,74.06
2018-12-18T22:44:34.737Z,74.13
2018-12-18T22:47:01.740Z,74.39
2018-12-18T22:49:28.689Z,74.55
2018-12-18T22:51:55.658Z,74.53
2018-12-18T22:54:23.078Z,74.43
2018-12-18T22:56:50.479Z,74.57
2018-12-18T22:59:17.897Z,74.80
2018-12-18T23:01:45.376Z,74.86
2018-12-18T23:04:12.815Z,74.88
2018-12-18T23:06:40.208Z,74.96
2018-12-18T23:09:07.606Z,74.76
2018-12-18T23:11:35.774Z,74.81
2018-12-18T23:14:03.395Z,74.68
2018-12-18T23:16:30.822Z,74.74
2018-12-18T23:18:58.285Z,74.61
2018-12-18T23:21:25.803Z,74.70
2018-12-18T23:23:53.211Z,74.61
2018-12-18T23:26:20.649Z,74.54
2018-12-18T23:28:48.076Z,74.75
2018-12-18T23:31:15.486Z,74.74
2018-12-18T23:33:42.908Z,74.71
2018-12-18T23:36:10.372Z,74.48
2018-12-18T23:38:37.746Z,74.67
2018-12-18T23:41:05.203Z,74.41
2018-12-18T23:43:32.610Z,74.35
2018-12-18T23:46:00.105Z,74.35
2018-12-18T23:48:27.543Z,74.37
2018-12-18T23:50:55.035Z,74.63
2018-12-18T23:53:22.462Z,75.07
2018-12-18T23:55:49.851Z,75.04
2018-12-18T23:58:18.110Z,75.55
